createdAt,value
2023-01-09T00:00:55.397Z,479.00
2023-01-09T00:01:55.390Z,478.00
2023-01-09T00:02:55.365Z,480.00
2023-01-09T00:03:55.429Z,478.00
2023-01-09T00:55:40.510Z,476.00
2023-01-09T00:56:40.487Z,477.00
2023-01-09T00:57:40.414Z,480.00
2023-01-09T00:58:40.367Z,483.00
2023-01-09T00:59:40.315Z,485.00
2023-01-09T01:00:40.274Z,485.00
2023-01-09T01:01:40.458Z,487.00
2023-01-09T01:02:40.209Z,484.00
2023-01-09T01:03:40.110Z,485.00
2023-01-09T01:04:40.069Z,485.00
2023-01-09T01:05:40.030Z,485.00
2023-01-09T01:06:39.982Z,486.00
2023-01-09T01:07:39.926Z,484.00
2023-01-09T01:08:39.878Z,485.00
2023-01-09T01:09:39.837Z,484.00
2023-01-09T01:10:39.832Z,482.00
2023-01-09T01:11:39.772Z,482.00
2023-01-09T01:12:39.695Z,482.00
2023-01-09T01:13:39.643Z,485.00
2023-01-09T01:14:39.604Z,486.00
2023-01-09T01:15:39.551Z,487.00
2023-01-09T01:16:39.523Z,485.00
2023-01-09T01:17:39.465Z,486.00
2023-01-09T01:18:39.412Z,485.00
2023-01-09T01:19:39.380Z,483.00
2023-01-09T01:20:39.319Z,483.00
2023-01-09T01:21:39.274Z,481.00
2023-01-09T01:22:39.242Z,483.00
2023-01-09T01:23:39.188Z,482.00
2023-01-09T01:24:39.144Z,483.00
2023-01-09T01:25:39.100Z,481.00
2023-01-09T01:26:39.090Z,479.00
2023-01-09T01:27:39.037Z,481.00
2023-01-09T01:28:38.992Z,480.00
2023-01-09T01:29:38.936Z,480.00
2023-01-09T01:30:38.947Z,481.00
2023-01-09T01:31:38.857Z,478.00
2023-01-09T01:32:38.817Z,482.00
2023-01-09T01:33:38.787Z,481.00
2023-01-09T01:34:38.752Z,484.00
2023-01-09T01:35:38.713Z,483.00
2023-01-09T01:36:38.680Z,482.00
2023-01-09T01:37:38.641Z,480.00
2023-01-09T01:38:38.615Z,482.00
2023-01-09T01:39:38.577Z,481.00
2023-01-09T01:40:38.552Z,481.00
2023-01-09T01:41:38.506Z,480.00
2023-01-09T01:42:38.498Z,480.00
2023-01-09T01:43:38.433Z,479.00
2023-01-09T01:44:38.405Z,479.00
2023-01-09T01:45:38.402Z,480.00
2023-01-09T01:46:38.331Z,482.00
2023-01-09T01:47:38.293Z,483.00
2023-01-09T01:48:38.258Z,487.00
2023-01-09T01:49:38.223Z,486.00
2023-01-09T01:50:38.182Z,487.00
2023-01-09T01:51:38.141Z,484.00
2023-01-09T01:52:38.108Z,483.00
2023-01-09T01:53:38.081Z,483.00
2023-01-09T01:54:38.039Z,479.00
2023-01-09T01:55:38.012Z,481.00
2023-01-09T01:56:37.967Z,481.00
2023-01-09T01:57:37.922Z,482.00
2023-01-09T01:58:37.902Z,485.00
2023-01-09T01:59:37.833Z,483.00
2023-01-09T02:00:37.794Z,481.00
2023-01-09T02:01:37.831Z,481.00
2023-01-09T02:02:37.763Z,481.00
2023-01-09T02:03:37.690Z,482.00
2023-01-09T02:04:37.641Z,480.00
2023-01-09T02:05:37.602Z,480.00
2023-01-09T02:06:37.560Z,481.00
2023-01-09T02:07:37.527Z,480.00
2023-01-09T02:08:37.482Z,478.00
2023-01-09T02:09:37.436Z,475.00
2023-01-09T02:10:37.407Z,477.00
2023-01-09T02:11:37.360Z,477.00
2023-01-09T02:12:37.322Z,477.00
2023-01-09T02:13:37.287Z,478.00
2023-01-09T02:14:37.281Z,479.00
2023-01-09T02:15:37.208Z,476.00
2023-01-09T02:16:37.161Z,475.00
2023-01-09T02:17:37.125Z,473.00
2023-01-09T02:18:37.091Z,471.00
2023-01-09T02:19:37.044Z,470.00
2023-01-09T02:20:36.993Z,473.00
2023-01-09T02:21:36.953Z,473.00
2023-01-09T02:22:36.896Z,472.00
2023-01-09T02:23:36.857Z,473.00
2023-01-09T02:24:36.805Z,473.00
2023-01-09T02:25:36.762Z,473.00
2023-01-09T02:26:36.724Z,472.00
2023-01-09T02:27:36.662Z,473.00
2023-01-09T02:28:36.623Z,475.00
2023-01-09T02:29:36.570Z,477.00
2023-01-09T02:30:36.546Z,475.00
2023-01-09T02:31:36.521Z,477.00
2023-01-09T02:32:36.425Z,479.00
2023-01-09T02:33:36.377Z,480.00
2023-01-09T02:34:36.340Z,478.00
2023-01-09T02:35:36.301Z,479.00
2023-01-09T02:36:36.235Z,478.00
2023-01-09T02:37:36.179Z,478.00
2023-01-09T02:38:36.132Z,477.00
2023-01-09T02:39:36.086Z,479.00
2023-01-09T02:40:36.039Z,479.00
2023-01-09T02:41:35.979Z,479.00
2023-01-09T02:42:35.942Z,480.00
2023-01-09T02:43:35.891Z,481.00
2023-01-09T02:44:35.852Z,484.00
2023-01-09T02:45:35.841Z,482.00
2023-01-09T02:46:35.800Z,483.00
2023-01-09T02:47:35.698Z,483.00
2023-01-09T02:48:35.651Z,481.00
2023-01-09T02:49:35.599Z,479.00
2023-01-09T02:50:35.548Z,477.00
2023-01-09T02:51:35.531Z,478.00
2023-01-09T02:52:35.452Z,479.00
2023-01-09T02:53:35.418Z,478.00
2023-01-09T02:54:35.359Z,478.00
2023-01-09T02:55:35.314Z,480.00
2023-01-09T02:56:35.267Z,482.00
2023-01-09T02:57:35.218Z,483.00
2023-01-09T02:58:35.245Z,483.00
2023-01-09T02:59:35.127Z,485.00
2023-01-09T03:00:35.084Z,482.00
2023-01-09T03:01:35.109Z,479.00
2023-01-09T03:02:35.064Z,480.00
2023-01-09T03:03:34.938Z,481.00
2023-01-09T03:04:34.905Z,478.00
2023-01-09T03:05:34.874Z,476.00
2023-01-09T03:06:34.800Z,472.00
2023-01-09T03:07:34.769Z,473.00
2023-01-09T03:08:34.723Z,475.00
2023-01-09T03:09:34.670Z,477.00
2023-01-09T03:10:34.626Z,477.00
2023-01-09T03:11:34.576Z,480.00
2023-01-09T03:12:34.527Z,481.00
2023-01-09T03:13:34.490Z,479.00
2023-01-09T03:14:34.446Z,478.00
2023-01-09T03:15:34.403Z,479.00
2023-01-09T03:16:34.400Z,481.00
2023-01-09T03:17:34.308Z,479.00
2023-01-09T03:18:34.293Z,479.00
2023-01-09T03:19:34.233Z,476.00
2023-01-09T03:20:34.187Z,478.00
2023-01-09T03:21:34.135Z,479.00
2023-01-09T03:22:34.087Z,480.00
2023-01-09T03:23:34.042Z,480.00
2023-01-09T03:24:34.035Z,481.00
2023-01-09T03:25:33.951Z,480.00
2023-01-09T03:26:33.945Z,477.00
2023-01-09T03:27:33.864Z,478.00
2023-01-09T03:28:33.814Z,477.00
2023-01-09T03:29:33.777Z,479.00
2023-01-09T03:30:33.754Z,481.00
2023-01-09T03:31:33.724Z,483.00
2023-01-09T03:32:33.632Z,483.00
2023-01-09T03:33:33.598Z,482.00
2023-01-09T03:34:33.588Z,481.00
2023-01-09T03:35:33.500Z,481.00
2023-01-09T03:36:33.448Z,481.00
2023-01-09T03:37:33.405Z,479.00
2023-01-09T03:38:33.353Z,478.00
2023-01-09T03:39:33.387Z,479.00
2023-01-09T03:40:33.269Z,479.00
2023-01-09T03:41:33.338Z,480.00
2023-01-09T03:42:33.173Z,475.00
2023-01-09T03:43:33.131Z,475.00
2023-01-09T03:44:33.117Z,474.00
2023-01-09T03:45:33.106Z,475.00
2023-01-09T03:46:33.000Z,474.00
2023-01-09T03:47:32.963Z,471.00
2023-01-09T03:48:32.904Z,473.00
2023-01-09T03:49:32.892Z,474.00
2023-01-09T03:50:32.838Z,475.00
2023-01-09T03:51:32.769Z,473.00
2023-01-09T03:52:32.730Z,473.00
2023-01-09T03:53:32.670Z,473.00
2023-01-09T03:54:32.633Z,474.00
2023-01-09T03:55:32.567Z,475.00
2023-01-09T03:56:33.203Z,475.00
2023-01-09T03:57:32.482Z,474.00
2023-01-09T03:58:32.426Z,472.00
2023-01-09T03:59:32.374Z,471.00
2023-01-09T04:00:32.323Z,473.00
2023-01-09T04:01:32.409Z,473.00
2023-01-09T04:02:32.216Z,473.00
2023-01-09T04:03:32.233Z,473.00
2023-01-09T04:04:32.121Z,476.00
2023-01-09T04:05:32.071Z,474.00
2023-01-09T04:06:32.092Z,475.00
2023-01-09T04:07:31.985Z,479.00
2023-01-09T04:08:31.947Z,481.00
2023-01-09T04:09:31.897Z,480.00
2023-01-09T04:10:31.868Z,478.00
2023-01-09T04:11:31.843Z,481.00
2023-01-09T04:12:31.788Z,479.00
2023-01-09T04:13:31.732Z,476.00
2023-01-09T04:14:31.683Z,474.00
2023-01-09T04:15:31.640Z,474.00
2023-01-09T04:16:31.706Z,473.00
2023-01-09T04:17:31.545Z,473.00
2023-01-09T04:18:31.500Z,471.00
2023-01-09T04:19:31.465Z,469.00
2023-01-09T04:20:31.423Z,467.00
2023-01-09T04:21:31.381Z,469.00
2023-01-09T04:22:31.412Z,470.00
2023-01-09T04:23:31.298Z,468.00
2023-01-09T04:24:31.243Z,469.00
2023-01-09T04:25:31.197Z,466.00
2023-01-09T04:26:31.141Z,466.00
2023-01-09T04:27:31.151Z,463.00
2023-01-09T04:28:31.057Z,466.00
2023-01-09T04:29:31.013Z,467.00
2023-01-09T04:30:30.984Z,467.00
2023-01-09T04:31:30.957Z,466.00
2023-01-09T04:32:30.926Z,465.00
2023-01-09T04:33:30.831Z,464.00
2023-01-09T04:34:30.781Z,466.00
2023-01-09T04:35:30.786Z,466.00
2023-01-09T04:36:30.689Z,465.00
2023-01-09T04:37:30.651Z,462.00
2023-01-09T04:38:30.621Z,462.00
2023-01-09T04:39:30.546Z,463.00
2023-01-09T04:40:30.498Z,463.00
2023-01-09T04:41:30.453Z,464.00
2023-01-09T04:42:30.401Z,466.00
2023-01-09T04:43:30.387Z,468.00
2023-01-09T04:44:30.313Z,467.00
2023-01-09T04:45:30.356Z,465.00
2023-01-09T04:46:30.217Z,466.00
2023-01-09T04:47:30.166Z,467.00
2023-01-09T04:48:30.148Z,467.00
2023-01-09T04:49:30.076Z,467.00
2023-01-09T04:50:31.416Z,469.00
2023-01-09T04:51:29.989Z,471.00
2023-01-09T04:52:29.951Z,471.00
2023-01-09T04:53:29.934Z,470.00
2023-01-09T04:54:29.872Z,470.00
2023-01-09T04:55:29.793Z,465.00
2023-01-09T04:56:29.750Z,463.00
2023-01-09T04:57:29.699Z,463.00
2023-01-09T04:58:29.678Z,463.00
2023-01-09T04:59:29.624Z,462.00
2023-01-09T05:00:29.547Z,460.00
2023-01-09T05:01:29.744Z,462.00
2023-01-09T05:02:29.437Z,463.00
2023-01-09T05:03:29.394Z,464.00
2023-01-09T05:04:29.484Z,461.00
2023-01-09T05:05:29.298Z,462.00
2023-01-09T05:06:29.244Z,462.00
2023-01-09T05:07:29.204Z,464.00
2023-01-09T05:08:29.204Z,463.00
2023-01-09T05:09:29.097Z,463.00
2023-01-09T05:10:29.059Z,465.00
2023-01-09T05:11:28.982Z,465.00
2023-01-09T05:12:28.932Z,466.00
2023-01-09T05:13:28.875Z,464.00
2023-01-09T05:14:28.879Z,466.00
2023-01-09T05:15:28.781Z,467.00
2023-01-09T05:16:28.836Z,464.00
2023-01-09T05:17:28.681Z,460.00
2023-01-09T05:18:28.641Z,460.00
2023-01-09T05:19:28.589Z,460.00
2023-01-09T05:20:28.564Z,459.00
2023-01-09T05:21:28.495Z,460.00
2023-01-09T05:22:28.444Z,459.00
2023-01-09T05:23:28.403Z,458.00
2023-01-09T05:24:28.352Z,459.00
2023-01-09T05:25:28.311Z,457.00
2023-01-09T05:26:28.324Z,458.00
2023-01-09T05:27:28.216Z,457.00
2023-01-09T05:28:28.163Z,458.00
2023-01-09T05:29:28.111Z,457.00
2023-01-09T05:30:28.067Z,460.00
2023-01-09T05:31:28.108Z,457.00
2023-01-09T05:32:27.963Z,456.00
2023-01-09T05:33:27.910Z,455.00
2023-01-09T05:34:27.860Z,456.00
2023-01-09T05:35:27.824Z,454.00
2023-01-09T05:36:27.781Z,454.00
2023-01-09T05:37:27.710Z,457.00
2023-01-09T05:38:27.657Z,459.00
2023-01-09T05:39:27.623Z,461.00
2023-01-09T05:40:32.314Z,460.00
2023-01-09T05:41:27.523Z,462.00
2023-01-09T05:42:27.493Z,464.00
2023-01-09T05:43:27.410Z,463.00
2023-01-09T05:44:27.362Z,462.00
2023-01-09T05:45:27.382Z,462.00
2023-01-09T05:46:27.326Z,464.00
2023-01-09T05:47:27.210Z,462.00
2023-01-09T05:48:27.172Z,461.00
2023-01-09T05:49:27.133Z,461.00
2023-01-09T05:50:27.058Z,464.00
2023-01-09T05:51:27.020Z,466.00
2023-01-09T05:52:26.967Z,469.00
2023-01-09T05:53:26.920Z,469.00
2023-01-09T05:54:26.903Z,468.00
2023-01-09T05:55:26.823Z,465.00
2023-01-09T05:56:26.774Z,465.00
2023-01-09T05:57:27.767Z,465.00
2023-01-09T05:58:26.698Z,466.00
2023-01-09T05:59:26.640Z,465.00
2023-01-09T06:00:26.555Z,464.00
2023-01-09T06:01:26.550Z,468.00
2023-01-09T06:02:26.548Z,467.00
2023-01-09T06:03:26.411Z,468.00
2023-01-09T06:04:26.747Z,468.00
2023-01-09T06:05:26.306Z,467.00
2023-01-09T06:06:26.250Z,467.00
2023-01-09T06:07:26.194Z,467.00
2023-01-09T06:08:26.172Z,465.00
2023-01-09T06:09:26.177Z,465.00
2023-01-09T06:10:26.043Z,466.00
2023-01-09T06:11:25.992Z,468.00
2023-01-09T06:12:25.971Z,467.00
2023-01-09T06:13:25.887Z,468.00
2023-01-09T06:14:25.856Z,468.00
2023-01-09T06:15:25.780Z,468.00
2023-01-09T06:16:25.778Z,467.00
2023-01-09T06:17:25.704Z,468.00
2023-01-09T06:18:25.631Z,464.00
2023-01-09T06:19:25.586Z,461.00
2023-01-09T06:20:25.546Z,463.00
2023-01-09T06:21:25.756Z,470.00
2023-01-09T06:22:26.139Z,473.00
2023-01-09T06:23:25.380Z,473.00
2023-01-09T06:24:25.356Z,477.00
2023-01-09T06:25:25.277Z,478.00
2023-01-09T06:26:25.255Z,478.00
2023-01-09T06:27:25.178Z,480.00
2023-01-09T06:28:25.164Z,482.00
2023-01-09T06:29:25.114Z,478.00
2023-01-09T06:30:25.065Z,480.00
2023-01-09T06:31:25.102Z,478.00
2023-01-09T06:32:24.979Z,478.00
2023-01-09T06:33:25.014Z,476.00
2023-01-09T06:34:25.296Z,478.00
2023-01-09T06:35:24.780Z,482.00
2023-01-09T06:36:24.737Z,489.00
2023-01-09T06:37:24.671Z,491.00
2023-01-09T06:38:24.620Z,492.00
2023-01-09T06:39:24.787Z,493.00
2023-01-09T06:40:24.517Z,492.00
2023-01-09T06:41:24.468Z,490.00
2023-01-09T06:42:24.435Z,490.00
2023-01-09T06:43:24.403Z,490.00
2023-01-09T06:44:24.817Z,491.00
2023-01-09T06:45:24.282Z,493.00
2023-01-09T06:46:24.344Z,495.00
2023-01-09T06:47:24.221Z,498.00
2023-01-09T06:48:24.285Z,502.00
2023-01-09T06:49:24.101Z,509.00
2023-01-09T06:50:24.040Z,515.00
2023-01-09T06:51:23.993Z,526.00
2023-01-09T06:52:23.936Z,541.00
2023-01-09T06:53:24.281Z,545.00
2023-01-09T06:54:23.839Z,547.00
2023-01-09T06:55:23.827Z,558.00
2023-01-09T06:56:23.764Z,574.00
2023-01-09T06:57:24.170Z,603.00
2023-01-09T06:58:23.846Z,619.00
2023-01-09T06:59:24.635Z,631.00
2023-01-09T07:00:23.582Z,635.00
2023-01-09T07:01:23.683Z,632.00
2023-01-09T07:02:23.515Z,625.00
2023-01-09T07:03:23.830Z,618.00
2023-01-09T07:04:23.465Z,614.00
2023-01-09T07:05:23.349Z,615.00
2023-01-09T07:06:23.304Z,615.00
2023-01-09T07:07:23.254Z,615.00
2023-01-09T07:08:23.294Z,614.00
2023-01-09T07:09:23.161Z,615.00
2023-01-09T07:10:23.118Z,614.00
2023-01-09T07:11:23.067Z,615.00
2023-01-09T07:12:23.039Z,614.00
2023-01-09T07:13:22.973Z,613.00
2023-01-09T07:14:22.924Z,612.00
2023-01-09T07:15:22.897Z,614.00
2023-01-09T07:16:22.873Z,609.00
2023-01-09T07:17:22.786Z,609.00
2023-01-09T07:18:22.796Z,608.00
2023-01-09T07:19:22.717Z,607.00
2023-01-09T07:20:22.655Z,609.00
2023-01-09T07:21:22.587Z,608.00
2023-01-09T07:22:22.548Z,605.00
2023-01-09T07:23:22.497Z,606.00
2023-01-09T07:24:22.445Z,609.00
2023-01-09T07:25:23.274Z,613.00
2023-01-09T07:26:22.355Z,616.00
2023-01-09T07:27:22.318Z,617.00
2023-01-09T07:28:22.284Z,616.00
2023-01-09T07:29:22.232Z,615.00
2023-01-09T07:30:22.164Z,614.00
2023-01-09T07:31:22.193Z,609.00
2023-01-09T07:32:22.079Z,609.00
2023-01-09T07:33:22.054Z,610.00
2023-01-09T07:34:22.004Z,608.00
2023-01-09T07:35:21.921Z,606.00
2023-01-09T07:36:21.881Z,605.00
2023-01-09T07:37:21.822Z,603.00
2023-01-09T07:38:21.878Z,605.00
2023-01-09T07:39:21.746Z,604.00
2023-01-09T07:40:21.684Z,607.00
2023-01-09T07:41:21.631Z,610.00
2023-01-09T07:42:21.582Z,611.00
2023-01-09T07:43:21.783Z,609.00
2023-01-09T07:44:21.473Z,608.00
2023-01-09T07:45:21.429Z,607.00
2023-01-09T07:46:21.897Z,610.00
2023-01-09T07:47:21.326Z,612.00
2023-01-09T07:48:21.809Z,612.00
2023-01-09T07:49:21.286Z,609.00
2023-01-09T07:50:21.220Z,613.00
2023-01-09T07:51:21.133Z,613.00
2023-01-09T07:52:21.312Z,612.00
2023-01-09T07:53:21.043Z,614.00
2023-01-09T07:54:20.990Z,614.00
2023-01-09T07:55:20.951Z,612.00
2023-01-09T07:56:20.887Z,612.00
2023-01-09T07:57:20.843Z,610.00
2023-01-09T07:58:21.788Z,608.00
2023-01-09T07:59:20.743Z,605.00
2023-01-09T08:00:20.816Z,604.00
2023-01-09T08:01:20.707Z,605.00
2023-01-09T08:02:20.720Z,608.00
2023-01-09T08:03:20.540Z,609.00
2023-01-09T08:04:20.809Z,609.00
2023-01-09T08:05:20.821Z,610.00
2023-01-09T08:06:20.428Z,608.00
2023-01-09T08:07:20.349Z,611.00
2023-01-09T08:08:20.308Z,611.00
2023-01-09T08:09:20.257Z,610.00
2023-01-09T08:10:20.325Z,609.00
2023-01-09T08:11:20.605Z,608.00
2023-01-09T08:12:20.102Z,606.00
2023-01-09T08:13:20.107Z,606.00
2023-01-09T08:14:20.017Z,606.00
2023-01-09T08:15:20.291Z,604.00
2023-01-09T08:16:19.964Z,602.00
2023-01-09T08:17:19.869Z,601.00
2023-01-09T08:18:19.801Z,601.00
2023-01-09T08:19:19.758Z,601.00
2023-01-09T08:20:19.705Z,598.00
2023-01-09T08:21:19.679Z,596.00
2023-01-09T08:22:20.155Z,597.00
2023-01-09T08:23:19.563Z,595.00
2023-01-09T08:24:19.522Z,594.00
2023-01-09T08:25:19.802Z,594.00
2023-01-09T08:26:19.424Z,595.00
2023-01-09T08:27:19.378Z,595.00
2023-01-09T08:28:19.321Z,596.00
2023-01-09T08:29:19.360Z,592.00
2023-01-09T08:30:19.235Z,593.00
2023-01-09T08:31:19.242Z,592.00
2023-01-09T08:32:19.163Z,592.00
2023-01-09T08:33:19.090Z,593.00
2023-01-09T08:34:19.044Z,597.00
2023-01-09T08:35:19.321Z,597.00
2023-01-09T08:36:19.036Z,598.00
2023-01-09T08:37:18.929Z,598.00
2023-01-09T08:38:18.875Z,603.00
2023-01-09T08:39:18.795Z,608.00
2023-01-09T08:40:18.813Z,639.00
2023-01-09T08:41:18.688Z,705.00
2023-01-09T08:42:18.633Z,705.00
2023-01-09T08:43:18.590Z,667.00
2023-01-09T08:44:18.537Z,655.00
2023-01-09T08:45:18.820Z,652.00
2023-01-09T08:46:18.494Z,651.00
2023-01-09T08:47:18.397Z,651.00
2023-01-09T08:48:18.353Z,648.00
2023-01-09T08:49:18.312Z,646.00
2023-01-09T08:50:18.303Z,698.00
2023-01-09T08:51:18.204Z,695.00
2023-01-09T08:52:18.161Z,728.00
2023-01-09T08:53:18.147Z,776.00
2023-01-09T08:54:18.100Z,809.00
2023-01-09T08:55:18.348Z,870.00
2023-01-09T08:56:17.978Z,896.00
2023-01-09T08:57:17.933Z,910.00
2023-01-09T08:58:17.888Z,909.00
2023-01-09T08:59:17.839Z,904.00
2023-01-09T09:00:17.855Z,920.00
2023-01-09T09:01:17.859Z,943.00
2023-01-09T09:02:17.692Z,997.00
2023-01-09T09:03:17.649Z,1009.00
2023-01-09T09:04:17.589Z,1014.00
2023-01-09T09:05:17.812Z,1032.00
2023-01-09T09:06:17.810Z,1040.00
2023-01-09T09:07:17.456Z,1056.00
2023-01-09T09:08:18.307Z,1109.00
2023-01-09T09:09:17.346Z,1121.00
2023-01-09T09:10:17.342Z,1143.00
2023-01-09T09:11:17.247Z,1169.00
2023-01-09T09:12:17.195Z,1179.00
2023-01-09T09:13:17.137Z,1190.00
2023-01-09T09:14:17.317Z,1205.00
2023-01-09T09:15:17.043Z,1217.00
2023-01-09T09:16:17.349Z,1238.00
2023-01-09T09:17:16.924Z,1270.00
2023-01-09T09:18:16.872Z,1283.00
2023-01-09T09:19:16.834Z,1288.00
2023-01-09T09:20:16.764Z,1298.00
2023-01-09T09:21:16.829Z,1306.00
2023-01-09T09:22:16.633Z,1321.00
2023-01-09T09:23:16.581Z,1332.00
2023-01-09T09:24:16.535Z,1351.00
2023-01-09T09:25:16.459Z,1042.00
2023-01-09T09:26:16.843Z,1178.00
2023-01-09T09:27:16.357Z,1302.00
2023-01-09T09:28:16.305Z,1344.00
2023-01-09T09:29:16.254Z,1369.00
2023-01-09T09:30:16.205Z,1383.00
2023-01-09T09:31:16.190Z,1401.00
2023-01-09T09:32:16.093Z,1418.00
2023-01-09T09:33:16.066Z,1422.00
2023-01-09T09:34:16.017Z,1436.00
2023-01-09T09:35:15.945Z,1455.00
2023-01-09T09:36:16.319Z,1464.00
2023-01-09T09:37:15.848Z,1486.00
2023-01-09T09:38:15.790Z,1509.00
2023-01-09T09:39:15.743Z,1531.00
2023-01-09T09:40:18.595Z,1544.00
2023-01-09T09:41:15.634Z,1552.00
2023-01-09T09:42:15.617Z,1564.00
2023-01-09T09:43:16.536Z,1576.00
2023-01-09T09:44:15.464Z,1585.00
2023-01-09T09:45:15.845Z,1594.00
2023-01-09T09:46:15.858Z,1621.00
2023-01-09T09:47:15.299Z,1637.00
2023-01-09T09:48:15.239Z,1653.00
2023-01-09T09:49:15.184Z,1666.00
2023-01-09T09:50:15.129Z,1686.00
2023-01-09T09:51:15.332Z,1707.00
2023-01-09T09:52:15.017Z,1716.00
2023-01-09T09:53:14.989Z,1737.00
2023-01-09T09:54:15.330Z,1760.00
2023-01-09T09:55:14.866Z,1780.00
2023-01-09T09:56:14.787Z,1799.00
2023-01-09T09:57:14.767Z,1824.00
2023-01-09T09:58:14.721Z,1860.00
2023-01-09T09:59:14.631Z,1874.00
2023-01-09T10:00:14.571Z,1883.00
2023-01-09T10:01:14.505Z,1899.00
2023-01-09T10:02:14.441Z,1919.00
2023-01-09T10:03:18.370Z,1935.00
2023-01-09T10:04:14.361Z,1945.00
2023-01-09T10:05:14.286Z,1957.00
2023-01-09T10:06:14.304Z,1975.00
2023-01-09T10:07:14.171Z,2000.00
2023-01-09T10:08:16.106Z,2028.00
2023-01-09T10:09:14.046Z,2036.00
2023-01-09T10:10:14.176Z,2042.00
2023-01-09T10:11:14.089Z,2054.00
2023-01-09T10:12:13.901Z,2074.00
2023-01-09T10:13:13.841Z,2096.00
2023-01-09T10:14:23.697Z,2124.00
2023-01-09T10:15:13.876Z,2136.00
2023-01-09T10:16:14.055Z,2150.00
2023-01-09T10:17:13.570Z,2166.00
2023-01-09T10:18:13.575Z,2183.00
2023-01-09T10:19:13.489Z,2199.00
2023-01-09T10:20:13.395Z,2209.00
2023-01-09T10:21:13.342Z,2220.00
2023-01-09T10:22:13.289Z,2234.00
2023-01-09T10:23:13.219Z,2250.00
2023-01-09T10:24:13.154Z,2269.00
2023-01-09T10:25:13.121Z,2289.00
2023-01-09T10:26:13.038Z,2323.00
2023-01-09T10:27:13.348Z,2336.00
2023-01-09T10:28:12.926Z,2356.00
2023-01-09T10:29:12.855Z,2371.00
2023-01-09T10:30:12.837Z,2394.00
2023-01-09T10:31:12.792Z,2412.00
2023-01-09T10:32:12.856Z,2410.00
2023-01-09T10:33:12.621Z,2422.00
2023-01-09T10:34:12.727Z,2415.00
2023-01-09T10:35:12.540Z,2421.00
2023-01-09T10:36:12.451Z,2426.00
2023-01-09T10:37:13.842Z,2422.00
2023-01-09T10:38:12.324Z,2424.00
2023-01-09T10:39:12.271Z,2417.00
2023-01-09T10:40:12.219Z,2411.00
2023-01-09T10:41:12.167Z,2397.00
2023-01-09T10:42:13.344Z,2384.00
2023-01-09T10:43:12.053Z,2370.00
2023-01-09T10:44:11.983Z,2369.00
2023-01-09T10:45:12.351Z,2366.00
2023-01-09T10:46:12.001Z,2365.00
2023-01-09T10:47:11.823Z,2367.00
2023-01-09T10:48:11.768Z,2366.00
2023-01-09T10:49:11.711Z,2365.00
2023-01-09T10:50:11.679Z,2366.00
2023-01-09T10:51:11.630Z,2366.00
2023-01-09T10:52:11.852Z,2367.00
2023-01-09T10:53:11.495Z,2370.00
2023-01-09T10:54:11.479Z,2373.00
2023-01-09T10:55:11.389Z,2370.00
2023-01-09T10:56:11.331Z,2376.00
2023-01-09T10:57:11.268Z,2377.00
2023-01-09T10:58:11.209Z,2378.00
2023-01-09T10:59:11.145Z,2382.00
2023-01-09T11:00:11.361Z,2388.00
2023-01-09T11:01:11.023Z,2389.00
2023-01-09T11:02:11.429Z,2397.00
2023-01-09T11:03:10.906Z,2408.00
2023-01-09T11:04:10.850Z,2419.00
2023-01-09T11:05:10.787Z,2425.00
2023-01-09T11:06:10.721Z,2426.00
2023-01-09T11:07:10.923Z,2432.00
2023-01-09T11:08:10.602Z,2427.00
2023-01-09T11:09:10.536Z,2423.00
2023-01-09T11:10:10.474Z,2423.00
2023-01-09T11:11:10.416Z,2428.00
2023-01-09T11:12:10.362Z,2433.00
2023-01-09T11:13:10.310Z,2437.00
2023-01-09T11:14:10.246Z,2444.00
2023-01-09T11:15:10.193Z,2447.00
2023-01-09T11:16:10.296Z,2446.00
2023-01-09T11:17:10.074Z,2446.00
2023-01-09T11:18:10.388Z,2441.00
2023-01-09T11:19:09.963Z,2434.00
2023-01-09T11:20:11.700Z,2428.00
2023-01-09T11:21:09.841Z,2421.00
2023-01-09T11:22:09.865Z,2419.00
2023-01-09T11:23:09.748Z,2316.00
2023-01-09T11:24:09.855Z,2353.00
2023-01-09T11:25:09.612Z,2348.00
2023-01-09T11:26:11.094Z,2325.00
2023-01-09T11:27:09.568Z,2301.00
2023-01-09T11:28:09.512Z,2277.00
2023-01-09T11:29:09.857Z,2259.00
2023-01-09T11:30:09.405Z,2239.00
2023-01-09T11:31:09.428Z,2213.00
2023-01-09T11:32:09.289Z,2182.00
2023-01-09T11:33:10.224Z,2187.00
2023-01-09T11:34:09.405Z,2180.00
2023-01-09T11:35:09.143Z,2181.00
2023-01-09T11:36:09.100Z,2174.00
2023-01-09T11:37:09.093Z,2170.00
2023-01-09T11:38:09.413Z,2172.00
2023-01-09T11:39:08.946Z,2180.00
2023-01-09T11:40:08.847Z,2179.00
2023-01-09T11:41:08.829Z,2177.00
2023-01-09T11:42:08.870Z,2174.00
2023-01-09T11:43:08.688Z,2168.00
2023-01-09T11:44:08.621Z,2164.00
2023-01-09T11:45:08.581Z,2163.00
2023-01-09T11:46:08.520Z,2164.00
2023-01-09T11:47:08.901Z,2161.00
2023-01-09T11:48:08.389Z,2161.00
2023-01-09T11:49:08.345Z,2161.00
2023-01-09T11:50:08.401Z,2157.00
2023-01-09T11:51:08.239Z,2149.00
2023-01-09T11:52:08.210Z,2141.00
2023-01-09T11:53:08.381Z,2140.00
2023-01-09T11:54:08.098Z,2136.00
2023-01-09T11:55:08.023Z,2136.00
2023-01-09T11:56:07.956Z,2132.00
2023-01-09T11:57:07.902Z,2130.00
2023-01-09T11:58:07.900Z,2125.00
2023-01-09T11:59:07.806Z,2118.00
2023-01-09T12:00:07.747Z,2122.00
2023-01-09T12:01:08.367Z,2121.00
2023-01-09T12:02:07.814Z,2119.00
2023-01-09T12:03:07.965Z,2115.00
2023-01-09T12:04:07.533Z,2108.00
2023-01-09T12:05:07.479Z,2104.00
2023-01-09T12:06:07.471Z,2104.00
2023-01-09T12:07:07.871Z,2099.00
2023-01-09T12:08:07.606Z,2097.00
2023-01-09T12:09:07.691Z,2094.00
2023-01-09T12:10:07.199Z,2094.00
2023-01-09T12:11:07.375Z,2090.00
2023-01-09T12:12:07.080Z,2089.00
2023-01-09T12:13:07.026Z,2090.00
2023-01-09T12:14:07.403Z,2090.00
2023-01-09T12:15:09.850Z,2093.00
2023-01-09T12:16:06.915Z,2092.00
2023-01-09T12:17:06.799Z,2093.00
2023-01-09T12:18:06.749Z,2093.00
2023-01-09T12:19:06.884Z,2096.00
2023-01-09T12:20:06.645Z,2097.00
2023-01-09T12:21:06.591Z,2094.00
2023-01-09T12:22:06.565Z,2089.00
2023-01-09T12:23:06.463Z,2082.00
2023-01-09T12:24:06.880Z,2075.00
2023-01-09T12:25:06.348Z,2070.00
2023-01-09T12:26:06.302Z,2068.00
2023-01-09T12:27:06.241Z,2068.00
2023-01-09T12:28:06.197Z,2063.00
2023-01-09T12:29:06.391Z,2062.00
2023-01-09T12:30:06.385Z,2060.00
2023-01-09T12:31:06.015Z,2059.00
2023-01-09T12:32:06.083Z,2055.00
2023-01-09T12:33:06.002Z,2055.00
2023-01-09T12:34:05.886Z,2052.00
2023-01-09T12:35:05.804Z,2050.00
2023-01-09T12:36:05.739Z,2051.00
2023-01-09T12:37:05.727Z,2047.00
2023-01-09T12:38:05.664Z,2048.00
2023-01-09T12:39:05.889Z,2045.00
2023-01-09T12:40:05.505Z,2039.00
2023-01-09T12:41:06.908Z,2031.00
2023-01-09T12:42:05.398Z,2027.00
2023-01-09T12:43:05.325Z,2028.00
2023-01-09T12:44:05.397Z,2026.00
2023-01-09T12:45:05.202Z,2026.00
2023-01-09T12:46:05.232Z,2025.00
2023-01-09T12:47:05.085Z,2027.00
2023-01-09T12:48:05.024Z,2024.00
2023-01-09T12:49:05.417Z,2022.00
2023-01-09T12:50:04.908Z,2024.00
2023-01-09T12:51:04.838Z,2020.00
2023-01-09T12:52:04.778Z,2017.00
2023-01-09T12:53:04.706Z,2014.00
2023-01-09T12:54:04.668Z,2010.00
2023-01-09T12:55:05.936Z,2009.00
2023-01-09T12:56:04.557Z,2013.00
2023-01-09T12:57:04.498Z,2011.00
2023-01-09T12:58:04.437Z,2014.00
2023-01-09T12:59:04.367Z,2015.00
2023-01-09T13:00:04.430Z,2011.00
2023-01-09T13:01:04.344Z,2009.00
2023-01-09T13:02:04.231Z,2009.00
2023-01-09T13:03:12.452Z,2009.00
2023-01-09T13:04:04.042Z,2005.00
2023-01-09T13:05:04.418Z,2008.00
2023-01-09T13:06:03.915Z,2006.00
2023-01-09T13:07:04.409Z,2002.00
2023-01-09T13:08:03.801Z,1996.00
2023-01-09T13:09:03.745Z,1994.00
2023-01-09T13:10:04.067Z,1991.00
2023-01-09T13:11:18.859Z,1986.00